Time;durP1;ratioP1;P1;durP2;ratioP2;P2;SDS_P1;SDS_P2;PMS_P1;PMS_P2;Temp;Humidity;BMP_temperature;BMP_pressure;BME280_temperature;BME280_humidity;BME280_pressure;Samples;Min_cycle;Max_cycle;Signal;HPM_P1;HPM_P2
2021/12/30 00:00:59;;;;;;;;;;;;;;;8.54;100.00;100961.47;5043178;28;19986;-71
2021/12/30 00:03:24;;;;;;;;;;;;;;;8.51;100.00;100959.81;5030270;28;20015;-71
2021/12/30 00:05:52;;;;;;;;;;;;;;;8.61;100.00;100965.56;5033014;28;20020;-74
2021/12/30 00:08:17;;;;;;;;;;;;;;;8.67;100.00;100970.59;5043065;28;19928;-76
2021/12/30 00:10:43;;;;;;;;;;;;;;;8.73;100.00;100970.34;5041049;28;19917;-78
2021/12/30 00:13:08;;;;;;;;;;;;;;;8.80;100.00;100977.09;5038201;28;20423;-70
2021/12/30 00:15:34;;;;;;;;;;;;;;;8.86;100.00;100972.53;5044784;28;19920;-70
2021/12/30 00:18:00;;;;;;;;;;;;;;;8.88;100.00;100962.84;5038125;28;19929;-70
2021/12/30 00:20:26;;;;;;;;;;;;;;;8.87;100.00;100955.88;5038149;28;19929;-71
2021/12/30 00:22:52;;;;;;;;;;;;;;;8.97;100.00;100954.63;5043503;28;19924;-71
2021/12/30 00:25:17;;;;;;;;;;;;;;;8.94;100.00;100963.47;5037123;28;19921;-70
2021/12/30 00:27:42;;;;;;;;;;;;;;;8.99;100.00;100963.28;5042109;28;20429;-75
2021/12/30 00:30:09;;;;;;;;;;;;;;;9.01;100.00;100957.97;5040665;28;19928;-74
2021/12/30 00:32:34;;;;;;;;;;;;;;;9.05;100.00;100968.28;5044723;28;19921;-76
2021/12/30 00:35:00;;;;;;;;;;;;;;;9.09;100.00;100976.91;5040865;28;20661;-76
2021/12/30 00:37:25;;;;;;;;;;;;;;;9.12;100.00;100990.75;5059596;28;20434;-75
2021/12/30 00:39:50;;;;;;;;;;;;;;;9.12;100.00;100985.50;5044626;28;19925;-75
2021/12/30 00:42:16;;;;;;;;;;;;;;;9.08;100.00;100981.28;5042873;28;19932;-73
2021/12/30 00:44:41;;;;;;;;;;;;;;;9.06;100.00;100990.13;5032527;28;19935;-74
2021/12/30 00:47:06;;;;;;;;;;;;;;;9.05;100.00;100989.25;5039195;28;19925;-75
2021/12/30 00:49:32;;;;;;;;;;;;;;;9.07;100.00;100997.06;5044168;28;19921;-76
2021/12/30 00:51:57;;;;;;;;;;;;;;;9.08;100.00;101007.47;5045971;28;19943;-77
2021/12/30 00:54:23;;;;;;;;;;;;;;;9.12;100.00;101003.84;5045835;28;19917;-78
2021/12/30 00:56:48;;;;;;;;;;;;;;;9.11;100.00;101007.38;5048154;28;19970;-74
2021/12/30 00:59:14;;;;;;;;;;;;;;;9.15;100.00;101009.88;5071104;28;19921;-69
2021/12/30 01:01:39;;;;;;;;;;;;;;;9.17;100.00;101013.28;5041856;28;19996;-70
2021/12/30 01:04:04;;;;;;;;;;;;;;;9.20;100.00;101000.06;5039944;28;19925;-68
2021/12/30 01:06:30;;;;;;;;;;;;;;;9.20;100.00;101011.44;5041818;28;19934;-68
2021/12/30 01:08:56;;;;;;;;;;;;;;;9.22;100.00;101020.06;5043365;28;19917;-69
2021/12/30 01:11:23;;;;;;;;;;;;;;;9.32;100.00;101010.09;5046575;28;19943;-69
2021/12/30 01:13:57;;;;;;;;;;;;;;;9.38;100.00;101012.44;5038183;28;19921;-69
2021/12/30 01:16:24;;;;;;;;;;;;;;;9.41;100.00;101019.38;5049005;28;19989;-68
2021/12/30 01:21:33;;;;;;;;;;;;;;;9.38;100.00;101020.31;5040448;28;19916;-69
2021/12/30 01:24:00;;;;;;;;;;;;;;;9.42;100.00;101024.53;5038918;28;19974;-69
2021/12/30 01:26:25;;;;;;;;;;;;;;;9.46;100.00;101034.91;5040693;28;20011;-69
2021/12/30 01:28:51;;;;;;;;;;;;;;;9.48;100.00;101020.00;5040305;28;20007;-71
2021/12/30 01:31:17;;;;;;;;;;;;;;;9.55;100.00;101022.28;5041421;28;19917;-71
2021/12/30 01:33:44;;;;;;;;;;;;;;;9.60;100.00;101035.22;5042910;28;19925;-71
2021/12/30 01:36:10;;;;;;;;;;;;;;;9.64;100.00;101046.47;5051592;28;19917;-70
2021/12/30 01:38:36;;;;;;;;;;;;;;;9.64;100.00;101049.09;5041917;28;19925;-74
2021/12/30 01:41:02;;;;;;;;;;;;;;;9.66;100.00;101047.22;5036965;28;20372;-79
2021/12/30 01:43:28;;;;;;;;;;;;;;;9.65;100.00;101046.41;5035136;28;19923;-78
2021/12/30 01:45:53;;;;;;;;;;;;;;;9.73;100.00;101040.84;5034905;28;19921;-74
2021/12/30 01:48:20;;;;;;;;;;;;;;;9.72;100.00;101029.47;5046839;28;20285;-73
2021/12/30 01:50:46;;;;;;;;;;;;;;;9.74;100.00;101032.06;5052296;28;19920;-74
2021/12/30 01:53:11;;;;;;;;;;;;;;;9.76;100.00;101032.81;5051888;28;19921;-74
2021/12/30 01:55:38;;;;;;;;;;;;;;;9.83;100.00;101025.56;5043965;28;19928;-74
2021/12/30 01:58:03;;;;;;;;;;;;;;;9.80;100.00;101036.22;5044142;28;20007;-74
2021/12/30 02:00:29;;;;;;;;;;;;;;;9.83;100.00;101041.31;5041711;28;20410;-74
2021/12/30 02:02:54;;;;;;;;;;;;;;;9.85;100.00;101049.97;5045458;28;19962;-77
2021/12/30 02:05:20;;;;;;;;;;;;;;;9.90;100.00;101033.13;5027294;28;19933;-76
2021/12/30 02:07:46;;;;;;;;;;;;;;;9.90;100.00;101037.53;5042241;28;20288;-77
2021/12/30 02:10:13;;;;;;;;;;;;;;;9.89;100.00;101034.03;5033294;28;19929;-75
2021/12/30 02:12:39;;;;;;;;;;;;;;;9.87;100.00;101027.16;5037737;28;19968;-77
2021/12/30 02:15:06;;;;;;;;;;;;;;;9.90;100.00;101021.78;5046779;28;20010;-75
2021/12/30 02:17:34;;;;;;;;;;;;;;;9.85;100.00;101021.97;5041608;28;20421;-75
2021/12/30 02:20:00;;;;;;;;;;;;;;;9.86;100.00;101026.31;5037662;28;19974;-73
2021/12/30 02:22:26;;;;;;;;;;;;;;;9.86;100.00;101034.19;5037071;28;20040;-71
2021/12/30 02:24:51;;;;;;;;;;;;;;;9.86;100.00;101039.44;5046338;28;20008;-70
2021/12/30 02:27:17;;;;;;;;;;;;;;;9.88;100.00;101039.38;5036031;28;19925;-70
2021/12/30 02:29:42;;;;;;;;;;;;;;;9.89;100.00;101041.91;5035116;28;20063;-70
2021/12/30 02:32:08;;;;;;;;;;;;;;;9.94;100.00;101052.22;5035998;28;20432;-71
2021/12/30 02:34:33;;;;;;;;;;;;;;;9.93;100.00;101054.91;5042977;28;19921;-71
2021/12/30 02:36:59;;;;;;;;;;;;;;;9.95;100.00;101059.19;5033737;28;19968;-69
2021/12/30 02:39:24;;;;;;;;;;;;;;;9.94;100.00;101065.34;5047349;28;19959;-74
2021/12/30 02:41:50;;;;;;;;;;;;;;;9.94;100.00;101069.75;5042056;28;20376;-71
2021/12/30 02:44:18;;;;;;;;;;;;;;;9.95;100.00;101085.44;5044949;28;19954;-74
2021/12/30 02:46:43;;;;;;;;;;;;;;;9.97;100.00;101080.97;5049218;28;19958;-70
2021/12/30 02:49:09;;;;;;;;;;;;;;;10.02;100.00;101096.53;5038711;28;19955;-74
2021/12/30 02:51:34;;;;;;;;;;;;;;;9.98;100.00;101084.44;5044755;28;19952;-74
2021/12/30 02:53:59;;;;;;;;;;;;;;;9.97;100.00;101080.97;5039931;28;20049;-71
2021/12/30 02:56:25;;;;;;;;;;;;;;;9.95;100.00;101074.94;5037441;28;19981;-71
2021/12/30 02:58:51;;;;;;;;;;;;;;;9.94;100.00;101075.84;5038200;28;19961;-71
2021/12/30 03:01:18;;;;;;;;;;;;;;;9.96;100.00;101071.41;5031996;28;19968;-71
2021/12/30 03:03:43;;;;;;;;;;;;;;;9.92;100.00;101085.56;5038883;28;19925;-71
2021/12/30 03:06:10;;;;;;;;;;;;;;;9.92;100.00;101092.59;5038783;28;20005;-73
2021/12/30 03:08:35;;;;;;;;;;;;;;;9.93;100.00;101095.13;5043877;28;19990;-71
2021/12/30 03:11:01;;;;;;;;;;;;;;;9.93;100.00;101089.88;5034627;28;19990;-70
2021/12/30 03:16:23;;;;;;;;;;;;;;;9.91;100.00;101076.00;5043915;28;19990;-70
2021/12/30 03:18:49;;;;;;;;;;;;;;;9.90;100.00;101074.28;5041465;28;19955;-69
2021/12/30 03:21:15;;;;;;;;;;;;;;;9.96;100.00;101070.56;5035200;28;20008;-69
2021/12/30 03:23:41;;;;;;;;;;;;;;;9.96;100.00;101060.06;5042524;28;19949;-73
2021/12/30 03:26:07;;;;;;;;;;;;;;;9.95;100.00;101039.97;5050838;28;19952;-74
2021/12/30 03:28:32;;;;;;;;;;;;;;;9.90;100.00;101033.13;5048466;28;19955;-71
2021/12/30 03:30:59;;;;;;;;;;;;;;;9.88;100.00;101044.63;5038693;28;19947;-70
2021/12/30 03:33:39;;;;;;;;;;;;;;;9.88;100.00;101048.09;5032693;28;19984;-71
2021/12/30 03:36:06;;;;;;;;;;;;;;;9.92;100.00;101046.22;5039898;28;20753;-73
2021/12/30 03:38:33;;;;;;;;;;;;;;;9.91;100.00;101057.63;5047878;28;20298;-73
2021/12/30 03:40:59;;;;;;;;;;;;;;;9.90;100.00;101061.16;5043455;28;19947;-74
2021/12/30 03:43:25;;;;;;;;;;;;;;;9.92;100.00;101055.84;5032188;28;19981;-73
2021/12/30 03:45:50;;;;;;;;;;;;;;;9.92;100.00;101067.22;5047303;28;19985;-75
2021/12/30 03:48:16;;;;;;;;;;;;;;;9.90;100.00;101076.91;5035801;28;19985;-76
2021/12/30 03:50:44;;;;;;;;;;;;;;;9.90;100.00;101080.38;5035254;28;20003;-73
2021/12/30 03:53:11;;;;;;;;;;;;;;;9.90;100.00;101090.03;5040953;28;19967;-75
2021/12/30 03:55:36;;;;;;;;;;;;;;;9.91;100.00;101081.25;5043237;28;19952;-75
2021/12/30 03:58:02;;;;;;;;;;;;;;;9.89;100.00;101091.78;5044483;28;20491;-72
2021/12/30 04:00:27;;;;;;;;;;;;;;;9.88;100.00;101097.94;5044729;28;19953;-72
2021/12/30 04:02:53;;;;;;;;;;;;;;;9.87;100.00;101093.59;5044821;28;20020;-73
2021/12/30 04:05:19;;;;;;;;;;;;;;;9.90;100.00;101088.25;5042750;28;19960;-72
2021/12/30 04:07:45;;;;;;;;;;;;;;;9.88;100.00;101086.59;5041852;28;19952;-71
2021/12/30 04:10:13;;;;;;;;;;;;;;;9.90;100.00;101077.75;5033516;28;19952;-71
2021/12/30 04:12:39;;;;;;;;;;;;;;;9.92;100.00;101072.47;5035706;28;20410;-69
2021/12/30 04:15:05;;;;;;;;;;;;;;;9.97;100.00;101070.47;5033750;28;19959;-69
2021/12/30 04:17:30;;;;;;;;;;;;;;;9.95;100.00;101074.94;5037467;28;19948;-70
2021/12/30 04:19:55;;;;;;;;;;;;;;;9.96;100.00;101075.81;5038849;28;20006;-70
2021/12/30 04:22:20;;;;;;;;;;;;;;;9.98;100.00;101071.31;5038256;28;20055;-73
2021/12/30 04:24:46;;;;;;;;;;;;;;;10.00;100.00;101057.25;5039889;28;20385;-69
2021/12/30 04:27:11;;;;;;;;;;;;;;;9.96;100.00;101055.66;5038542;28;19973;-69
2021/12/30 04:29:36;;;;;;;;;;;;;;;9.95;100.00;101063.59;5019204;28;19992;-69
2021/12/30 04:32:02;;;;;;;;;;;;;;;9.94;100.00;101062.72;5046439;28;19986;-70
2021/12/30 04:34:27;;;;;;;;;;;;;;;9.97;100.00;101075.72;5040642;28;19958;-74
2021/12/30 04:36:58;;;;;;;;;;;;;;;9.95;100.00;101074.94;5043068;28;19947;-75
2021/12/30 04:39:23;;;;;;;;;;;;;;;9.99;100.00;101073.03;5041013;28;20013;-74
2021/12/30 04:41:48;;;;;;;;;;;;;;;10.00;100.00;101073.00;5026340;28;19953;-70
2021/12/30 04:44:13;;;;;;;;;;;;;;;10.00;100.00;101073.00;5040389;28;19988;-68
2021/12/30 04:46:39;;;;;;;;;;;;;;;10.01;100.00;101064.19;5043587;28;19958;-73
2021/12/30 04:49:04;;;;;;;;;;;;;;;10.02;100.00;101063.28;5046305;28;19955;-73
2021/12/30 04:51:29;;;;;;;;;;;;;;;10.04;100.00;101065.84;5048019;28;19974;-74
2021/12/30 04:53:55;;;;;;;;;;;;;;;10.03;100.00;101059.72;5039480;28;19953;-74
2021/12/30 04:56:20;;;;;;;;;;;;;;;10.05;100.00;101052.63;5043791;28;20710;-70
2021/12/30 04:58:45;;;;;;;;;;;;;;;10.12;100.00;101048.00;5035722;28;19963;-71
2021/12/30 05:01:10;;;;;;;;;;;;;;;10.13;100.00;101047.06;5047986;28;19953;-74
2021/12/30 05:03:36;;;;;;;;;;;;;;;10.12;100.00;101061.13;5048658;28;19955;-74
2021/12/30 05:06:01;;;;;;;;;;;;;;;10.17;100.00;101061.78;5040499;28;19955;-73
2021/12/30 05:08:27;;;;;;;;;;;;;;;10.17;100.00;101053.91;5042241;28;20512;-78
2021/12/30 05:10:53;;;;;;;;;;;;;;;10.25;100.00;101058.84;5045204;28;19958;-71
2021/12/30 05:13:18;;;;;;;;;;;;;;;10.23;100.00;101052.81;5039556;28;19955;-76
2021/12/30 05:15:47;;;;;;;;;;;;;;;10.24;100.00;101059.78;5037319;28;19945;-71
2021/12/30 05:18:13;;;;;;;;;;;;;;;10.27;100.00;101050.91;5036727;28;20007;-75
2021/12/30 05:20:39;;;;;;;;;;;;;;;10.25;100.00;101058.00;5049646;28;20445;-75
2021/12/30 05:23:04;;;;;;;;;;;;;;;10.27;100.00;101041.25;5039226;28;19953;-74
2021/12/30 05:25:30;;;;;;;;;;;;;;;10.24;100.00;101046.66;5032689;28;19957;-74
2021/12/30 05:27:56;;;;;;;;;;;;;;;10.32;100.00;101055.03;5036214;28;19991;-70
2021/12/30 05:30:22;;;;;;;;;;;;;;;10.32;100.00;101049.78;5036514;28;19956;-70
2021/12/30 05:32:47;;;;;;;;;;;;;;;10.33;100.00;101040.13;5042418;28;19958;-70
2021/12/30 05:35:13;;;;;;;;;;;;;;;10.30;100.00;101049.00;5033644;28;19963;-70
2021/12/30 05:37:39;;;;;;;;;;;;;;;10.33;100.00;101046.25;5041037;28;19955;-69
2021/12/30 05:40:05;;;;;;;;;;;;;;;10.33;100.00;101041.00;5037967;28;20024;-70
2021/12/30 05:42:30;;;;;;;;;;;;;;;10.32;100.00;101043.66;5049611;28;19951;-70
2021/12/30 05:44:56;;;;;;;;;;;;;;;10.27;100.00;101054.38;5036799;28;20572;-71
2021/12/30 05:47:22;;;;;;;;;;;;;;;10.28;100.00;101061.34;5028245;28;19957;-71
2021/12/30 05:49:47;;;;;;;;;;;;;;;10.25;100.00;101056.22;5044467;28;19991;-71
2021/12/30 05:52:13;;;;;;;;;;;;;;;10.25;100.00;101058.84;5049244;28;19957;-74
2021/12/30 05:54:39;;;;;;;;;;;;;;;10.26;100.00;101055.28;5036551;28;20442;-74
2021/12/30 05:57:04;;;;;;;;;;;;;;;10.25;100.00;101058.00;5047880;28;19953;-74
2021/12/30 05:59:29;;;;;;;;;;;;;;;10.26;100.00;101060.53;5053481;28;20567;-73
2021/12/30 06:01:55;;;;;;;;;;;;;;;10.21;100.00;101058.09;5042313;28;19949;-72
2021/12/30 06:04:20;;;;;;;;;;;;;;;10.22;100.00;101058.97;5023307;28;20427;-73
2021/12/30 06:06:46;;;;;;;;;;;;;;;10.23;100.00;101071.19;5047669;28;20454;-74
2021/12/30 06:09:11;;;;;;;;;;;;;;;10.34;100.00;101075.97;5039046;28;19988;-74
2021/12/30 06:11:37;;;;;;;;;;;;;;;10.33;100.00;101062.00;5048588;28;19983;-70
2021/12/30 06:14:02;;;;;;;;;;;;;;;10.32;100.00;101068.19;5042942;28;19958;-71
2021/12/30 06:16:27;;;;;;;;;;;;;;;10.30;100.00;101070.00;5043922;28;20593;-70
2021/12/30 06:18:53;;;;;;;;;;;;;;;10.39;100.00;101070.56;5047676;28;19961;-70
2021/12/30 06:21:18;;;;;;;;;;;;;;;10.37;100.00;101070.59;5038042;28;20531;-69
2021/12/30 06:23:43;;;;;;;;;;;;;;;10.37;100.00;101070.59;5045892;28;19950;-70
2021/12/30 06:26:09;;;;;;;;;;;;;;;10.40;100.00;101060.00;5046659;28;19959;-70
2021/12/30 06:28:34;;;;;;;;;;;;;;;10.54;100.00;101075.19;5044631;28;19983;-70
2021/12/30 06:30:59;;;;;;;;;;;;;;;10.57;100.00;101079.44;5017548;28;20097;-71
2021/12/30 06:33:24;;;;;;;;;;;;;;;10.62;100.00;101080.09;5020030;28;20427;-70
2021/12/30 06:35:50;;;;;;;;;;;;;;;10.62;100.00;101083.56;5022791;28;19972;-69
2021/12/30 06:38:15;;;;;;;;;;;;;;;10.66;100.00;101095.66;5045480;28;19961;-70
2021/12/30 06:40:40;;;;;;;;;;;;;;;10.70;100.00;101090.25;5035701;28;20003;-74
2021/12/30 06:43:06;;;;;;;;;;;;;;;10.77;100.00;101095.19;5044523;28;20006;-73
2021/12/30 06:45:31;;;;;;;;;;;;;;;10.81;100.00;101093.28;5051076;28;20082;-74
2021/12/30 06:47:57;;;;;;;;;;;;;;;10.83;100.00;101091.44;5056474;28;19979;-74
2021/12/30 06:50:24;;;;;;;;;;;;;;;10.88;100.00;101085.97;5043503;28;20062;-72
2021/12/30 06:52:50;;;;;;;;;;;;;;;10.92;100.00;101090.19;5042706;28;20042;-70
2021/12/30 06:55:16;;;;;;;;;;;;;;;10.94;100.00;101083.94;5041040;28;20444;-70
2021/12/30 06:57:42;;;;;;;;;;;;;;;10.95;100.00;101088.28;5052636;28;19959;-70
2021/12/30 07:00:08;;;;;;;;;;;;;;;10.95;100.00;101090.91;5037528;28;19964;-70
2021/12/30 07:02:34;;;;;;;;;;;;;;;10.92;100.00;101090.19;5034930;28;19953;-69
2021/12/30 07:04:59;;;;;;;;;;;;;;;10.94;100.00;101088.34;5026407;28;19957;-69
2021/12/30 07:07:25;;;;;;;;;;;;;;;10.94;100.00;101094.44;5015517;28;19956;-69
2021/12/30 07:09:51;;;;;;;;;;;;;;;10.96;100.00;101097.03;5021520;28;19957;-70
2021/12/30 07:12:16;;;;;;;;;;;;;;;10.95;100.00;101104.03;5017666;28;19959;-74
2021/12/30 07:14:42;;;;;;;;;;;;;;;11.00;100.00;101101.22;5035063;28;20324;-76
2021/12/30 07:17:07;;;;;;;;;;;;;;;11.05;100.00;101090.47;5037361;28;20062;-74
2021/12/30 07:19:32;;;;;;;;;;;;;;;11.09;100.00;101097.31;5049845;28;20420;-74
2021/12/30 07:21:57;;;;;;;;;;;;;;;11.11;100.00;101088.44;5046951;28;20001;-74
2021/12/30 07:24:23;;;;;;;;;;;;;;;11.14;100.00;101101.47;5045797;28;19948;-73
2021/12/30 07:26:49;;;;;;;;;;;;;;;11.10;100.00;101097.25;5044427;28;20419;-75
2021/12/30 07:29:14;;;;;;;;;;;;;;;11.06;100.00;101100.97;5046052;28;20328;-75
2021/12/30 07:31:39;;;;;;;;;;;;;;;11.05;100.00;101124.66;5043412;28;19947;-73
2021/12/30 07:34:05;;;;;;;;;;;;;;;11.06;100.00;101134.28;5043385;28;20020;-74
2021/12/30 07:36:30;;;;;;;;;;;;;;;11.06;100.00;101123.75;5043154;28;19979;-74
2021/12/30 07:38:55;;;;;;;;;;;;;;;11.04;100.00;101120.31;5050407;28;20337;-74
2021/12/30 07:41:21;;;;;;;;;;;;;;;11.07;100.00;101139.47;5042625;28;20002;-74
2021/12/30 07:43:46;;;;;;;;;;;;;;;11.08;100.00;101117.50;5038011;28;19953;-75
2021/12/30 07:46:12;;;;;;;;;;;;;;;11.07;100.00;101122.84;5045199;28;20017;-75
2021/12/30 07:48:37;;;;;;;;;;;;;;;11.02;100.00;101123.03;5025977;28;19951;-70
2021/12/30 07:51:02;;;;;;;;;;;;;;;10.97;100.00;101130.25;5027227;28;20412;-69
2021/12/30 07:53:28;;;;;;;;;;;;;;;10.93;100.00;101136.59;5022144;28;19963;-69
2021/12/30 07:55:53;;;;;;;;;;;;;;;10.84;100.00;101116.81;5035558;28;20044;-71
2021/12/30 07:58:19;;;;;;;;;;;;;;;10.72;100.00;101136.59;5039456;28;20108;-71
2021/12/30 08:00:44;;;;;;;;;;;;;;;10.67;100.00;101139.44;5039653;28;20068;-73
2021/12/30 08:03:09;;;;;;;;;;;;;;;10.61;100.00;101136.19;5060903;28;20096;-76
2021/12/30 08:05:35;;;;;;;;;;;;;;;10.55;100.00;101139.06;5017359;28;19959;-73
2021/12/30 08:08:00;;;;;;;;;;;;;;;10.45;100.00;101133.38;5016846;28;19959;-72
2021/12/30 08:10:26;;;;;;;;;;;;;;;10.43;100.00;101127.31;5060862;28;20099;-73
2021/12/30 08:12:54;;;;;;;;;;;;;;;10.42;100.00;101134.31;5023205;28;20436;-71
2021/12/30 08:15:20;;;;;;;;;;;;;;;10.45;100.00;101146.50;5016991;28;20376;-75
2021/12/30 08:17:46;;;;;;;;;;;;;;;10.42;100.00;101139.56;5028290;28;19949;-72
2021/12/30 08:20:12;;;;;;;;;;;;;;;10.41;100.00;101131.78;5015493;28;20319;-72
2021/12/30 08:22:38;;;;;;;;;;;;;;;10.41;100.00;101137.03;5021209;28;19982;-75
2021/12/30 08:25:04;;;;;;;;;;;;;;;10.47;100.00;101127.13;5024345;28;20029;-77
2021/12/30 08:27:30;;;;;;;;;;;;;;;10.47;100.00;101149.91;5021589;28;20064;-73
2021/12/30 08:29:55;;;;;;;;;;;;;;;10.48;100.00;101143.72;5021417;28;20045;-72
2021/12/30 08:32:20;;;;;;;;;;;;;;;10.49;100.00;101141.06;5050718;28;19963;-72
2021/12/30 08:34:46;;;;;;;;;;;;;;;10.50;100.00;101157.66;5026634;28;19965;-76
2021/12/30 08:37:12;;;;;;;;;;;;;;;10.49;100.00;101156.81;5028879;28;19959;-75
2021/12/30 08:39:39;;;;;;;;;;;;;;;10.52;100.00;101161.06;5033016;28;20630;-76
2021/12/30 08:42:05;;;;;;;;;;;;;;;10.58;100.00;101176.59;5030897;28;20014;-76
2021/12/30 08:44:31;;;;;;;;;;;;;;;10.59;100.00;101183.53;5039685;28;20008;-74
2021/12/30 08:46:56;;;;;;;;;;;;;;;10.70;100.00;101195.38;5041411;28;19959;-74
2021/12/30 08:49:22;;;;;;;;;;;;;;;10.69;100.00;101191.06;5034561;28;19956;-75
2021/12/30 08:51:47;;;;;;;;;;;;;;;10.67;100.00;101193.75;5043255;28;19957;-76
2021/12/30 08:54:13;;;;;;;;;;;;;;;10.66;100.00;101208.66;5034907;28;19953;-76
2021/12/30 08:56:38;;;;;;;;;;;;;;;10.67;100.00;101194.59;5045789;28;19951;-75
2021/12/30 08:59:03;;;;;;;;;;;;;;;10.70;100.00;101206.75;5039731;28;20344;-75
2021/12/30 09:01:29;;;;;;;;;;;;;;;10.67;100.00;101218.25;5047739;28;19953;-77
2021/12/30 09:03:54;;;;;;;;;;;;;;;10.67;100.00;101223.50;5043338;28;19954;-76
2021/12/30 09:06:19;;;;;;;;;;;;;;;10.65;100.00;101229.72;5030411;28;21431;-75
2021/12/30 09:08:45;;;;;;;;;;;;;;;10.61;100.00;101236.88;5011248;28;20497;-76
2021/12/30 09:11:11;;;;;;;;;;;;;;;10.58;100.00;101237.03;5013652;28;20001;-75
2021/12/30 09:13:36;;;;;;;;;;;;;;;10.56;100.00;101232.72;5031749;28;20380;-75
2021/12/30 09:16:02;;;;;;;;;;;;;;;10.49;100.00;101234.75;5036405;28;19977;-75
2021/12/30 09:18:27;;;;;;;;;;;;;;;10.46;100.00;101235.75;5033753;28;19963;-77
2021/12/30 09:20:53;;;;;;;;;;;;;;;10.43;100.00;101232.38;5023524;28;20439;-75
2021/12/30 09:23:18;;;;;;;;;;;;;;;10.43;100.00;101237.63;5025725;28;19947;-72
2021/12/30 09:25:44;;;;;;;;;;;;;;;10.49;100.00;101233.00;5027287;28;20000;-72
2021/12/30 09:28:12;;;;;;;;;;;;;;;10.46;100.00;101233.09;5036385;28;20981;-73
2021/12/30 09:30:38;;;;;;;;;;;;;;;10.46;100.00;101241.00;5031440;28;19948;-77
2021/12/30 09:33:03;;;;;;;;;;;;;;;10.54;100.00;101251.19;5026437;28;19944;-72
2021/12/30 09:35:29;;;;;;;;;;;;;;;10.55;100.00;101254.66;5051191;28;19949;-76
2021/12/30 09:37:55;;;;;;;;;;;;;;;10.59;100.00;101241.34;5043563;28;19946;-74
2021/12/30 09:40:21;;;;;;;;;;;;;;;10.67;100.00;101228.78;5020137;28;20018;-73
2021/12/30 09:42:49;;;;;;;;;;;;;;;10.71;100.00;101247.88;5029984;28;19952;-73
2021/12/30 09:45:15;;;;;;;;;;;;;;;10.78;100.00;101248.50;5023925;28;19947;-76
2021/12/30 09:47:56;;;;;;;;;;;;;;;10.78;100.00;101256.38;5034379;28;19968;-76
2021/12/30 09:50:36;;;;;;;;;;;;;;;10.85;100.00;101263.09;5021925;28;19950;-76
2021/12/30 09:53:02;;;;;;;;;;;;;;;10.78;100.00;101257.22;5022569;28;19949;-72
2021/12/30 09:55:27;;;;;;;;;;;;;;;10.80;100.00;101270.31;5026436;28;20005;-75
2021/12/30 09:57:53;;;;;;;;;;;;;;;10.88;100.00;101277.88;5050930;28;19944;-76
2021/12/30 10:00:19;;;;;;;;;;;;;;;10.94;100.00;101275.00;5025891;28;19954;-76
2021/12/30 10:02:44;;;;;;;;;;;;;;;10.93;100.00;101278.56;5039896;28;19997;-77
2021/12/30 10:05:11;;;;;;;;;;;;;;;11.03;100.00;101271.13;5019943;28;19965;-76
2021/12/30 10:10:33;;;;;;;;;;;;;;;11.09;100.00;101278.75;5019239;28;20036;-76
2021/12/30 10:12:59;;;;;;;;;;;;;;;11.26;100.00;101289.41;5025555;28;19948;-76
2021/12/30 10:15:27;;;;;;;;;;;;;;;11.34;100.00;101285.63;5031991;28;19956;-75
2021/12/30 10:17:54;;;;;;;;;;;;;;;11.38;100.00;101277.53;5058211;28;20051;-75
2021/12/30 10:20:24;;;;;;;;;;;;;;;11.53;100.00;101291.78;5021147;28;19964;-76
2021/12/30 10:22:49;;;;;;;;;;;;;;;11.47;100.00;101283.31;5030415;28;19955;-75
2021/12/30 10:25:30;;;;;;;;;;;;;;;11.38;100.00;101272.28;5029184;28;20043;-77
2021/12/30 10:28:15;;;;;;;;;;;;;;;11.35;100.00;101282.91;5033114;28;20478;-73
2021/12/30 10:30:40;;;;;;;;;;;;;;;11.39;100.00;101283.63;5037973;28;19955;-72
2021/12/30 10:33:20;;;;;;;;;;;;;;;11.41;100.00;101287.06;5030997;28;20405;-77
2021/12/30 10:35:46;;;;;;;;;;;;;;;11.26;100.00;101289.41;5028663;28;19955;-77
2021/12/30 10:38:12;;;;;;;;;;;;;;;11.21;100.00;101303.69;5029951;28;20086;-76
2021/12/30 10:40:39;;;;;;;;;;;;;;;11.14;100.00;101282.91;5045672;28;19960;-78
2021/12/30 10:43:25;;;;;;;;;;;;;;;11.10;100.00;101309.41;5044729;28;20073;-77
2021/12/30 10:46:05;;;;;;;;;;;;;;;11.00;100.00;101324.69;5039557;28;19955;-78
2021/12/30 10:48:31;;;;;;;;;;;;;;;11.05;100.00;101314.84;5047039;28;20434;-76
2021/12/30 10:51:11;;;;;;;;;;;;;;;10.94;100.00;101322.31;5050138;28;19952;-78
2021/12/30 10:53:37;;;;;;;;;;;;;;;10.93;100.00;101324.09;5044441;28;19961;-77
2021/12/30 10:56:18;;;;;;;;;;;;;;;10.94;100.00;101322.31;5046416;28;19958;-77
2021/12/30 10:58:43;;;;;;;;;;;;;;;10.95;100.00;101329.31;5043666;28;19963;-76
2021/12/30 11:01:24;;;;;;;;;;;;;;;11.00;100.00;101329.94;5041846;28;19961;-76
2021/12/30 11:04:05;;;;;;;;;;;;;;;11.00;100.00;101332.59;5045902;28;20791;-76
2021/12/30 11:06:30;;;;;;;;;;;;;;;10.97;100.00;101330.06;5037660;28;20031;-78
2021/12/30 11:09:11;;;;;;;;;;;;;;;10.95;100.00;101343.28;5034540;28;20559;-77
2021/12/30 11:11:39;;;;;;;;;;;;;;;11.00;100.00;101334.38;5045341;28;20037;-75
2021/12/30 11:14:05;;;;;;;;;;;;;;;10.96;100.00;101331.84;5037511;28;19957;-76
2021/12/30 11:16:32;;;;;;;;;;;;;;;10.93;100.00;101324.09;5029469;28;20411;-76
2021/12/30 11:18:58;;;;;;;;;;;;;;;10.89;100.00;101337.41;5038257;28;20030;-77
2021/12/30 11:21:38;;;;;;;;;;;;;;;10.89;100.00;101330.41;5039427;28;19951;-77
2021/12/30 11:24:04;;;;;;;;;;;;;;;10.88;100.00;101339.19;5033681;28;19951;-77
2021/12/30 11:26:31;;;;;;;;;;;;;;;10.82;100.00;101336.81;5040645;28;19999;-79
2021/12/30 11:28:57;;;;;;;;;;;;;;;10.83;100.00;101334.13;5041921;28;20046;-77
2021/12/30 11:31:23;;;;;;;;;;;;;;;10.85;100.00;101328.81;5056605;28;19961;-77
2021/12/30 11:33:48;;;;;;;;;;;;;;;10.85;100.00;101320.91;5043673;28;19951;-73
2021/12/30 11:36:15;;;;;;;;;;;;;;;10.86;100.00;101321.78;5053923;28;19955;-73
2021/12/30 11:38:41;;;;;;;;;;;;;;;10.87;100.00;101326.09;5047017;28;19965;-74
2021/12/30 11:41:06;;;;;;;;;;;;;;;10.91;100.00;101333.84;5040112;28;19953;-74
2021/12/30 11:43:47;;;;;;;;;;;;;;;10.91;100.00;101331.19;5035679;28;20007;-73
2021/12/30 11:46:28;;;;;;;;;;;;;;;10.89;100.00;101335.66;5021940;28;19951;-72
2021/12/30 11:48:54;;;;;;;;;;;;;;;10.87;100.00;101316.47;5013816;28;20027;-74
2021/12/30 11:51:22;;;;;;;;;;;;;;;10.86;100.00;101330.53;5022400;28;19958;-76
2021/12/30 11:53:50;;;;;;;;;;;;;;;10.82;100.00;101321.03;5017382;28;20034;-77
2021/12/30 11:56:17;;;;;;;;;;;;;;;10.76;100.00;101319.50;5034377;28;19951;-77
2021/12/30 11:58:45;;;;;;;;;;;;;;;10.74;100.00;101323.13;5051407;28;20050;-77
2021/12/30 12:01:10;;;;;;;;;;;;;;;10.71;100.00;101328.47;5055532;28;19968;-78
2021/12/30 12:03:51;;;;;;;;;;;;;;;10.71;100.00;101333.75;5025539;28;19956;-77
2021/12/30 12:06:32;;;;;;;;;;;;;;;10.64;100.00;101327.88;5026425;28;19953;-77
2021/12/30 12:08:57;;;;;;;;;;;;;;;10.64;100.00;101334.00;5035674;28;20392;-72
2021/12/30 12:11:25;;;;;;;;;;;;;;;10.66;100.00;101334.81;5034831;28;19958;-73
2021/12/30 12:13:51;;;;;;;;;;;;;;;10.57;100.00;101324.66;5030800;28;19958;-73
2021/12/30 12:16:36;;;;;;;;;;;;;;;10.55;100.00;101339.63;5043367;28;19949;-74
2021/12/30 12:19:03;;;;;;;;;;;;;;;10.51;100.00;101343.25;5052184;28;19985;-74
2021/12/30 12:21:43;;;;;;;;;;;;;;;10.52;100.00;101339.72;5029319;28;19958;-74
2021/12/30 12:24:25;;;;;;;;;;;;;;;10.69;100.00;101346.13;5033725;28;19954;-73
2021/12/30 12:26:52;;;;;;;;;;;;;;;10.71;100.00;101334.63;5037829;28;19959;-73
2021/12/30 12:29:32;;;;;;;;;;;;;;;10.59;100.00;101327.22;5031207;28;19961;-73
2021/12/30 12:32:14;;;;;;;;;;;;;;;10.59;100.00;101332.47;5034917;28;19952;-73
2021/12/30 12:34:41;;;;;;;;;;;;;;;10.61;100.00;101334.09;5032262;28;19958;-74
2021/12/30 12:37:22;;;;;;;;;;;;;;;10.61;100.00;101335.91;5059683;28;20008;-74